createdAt,value
2022-10-19T00:01:21.994Z,9.93
2022-10-19T00:03:52.125Z,9.85
2022-10-19T00:06:28.280Z,9.87
2022-10-19T00:09:05.867Z,9.88
2022-10-19T00:11:34.797Z,9.77
2022-10-19T00:14:02.659Z,9.74
2022-10-19T00:16:32.876Z,9.80
2022-10-19T00:19:02.362Z,9.77
2022-10-19T00:21:30.166Z,9.74
2022-10-19T00:23:57.533Z,9.73
2022-10-19T00:26:25.699Z,9.75
2022-10-19T00:28:57.125Z,9.87
2022-10-19T00:31:25.093Z,9.82
2022-10-19T00:33:52.960Z,9.77
2022-10-19T00:36:26.827Z,9.84
2022-10-19T00:38:54.485Z,10.08
2022-10-19T00:41:24.299Z,9.89
2022-10-19T00:44:00.664Z,9.79
2022-10-19T00:46:30.947Z,9.85
2022-10-19T00:49:04.881Z,9.87
2022-10-19T00:51:36.761Z,9.80
2022-10-19T00:54:07.322Z,9.82
2022-10-19T00:56:38.566Z,9.70
2022-10-19T00:59:07.173Z,9.74
2022-10-19T01:01:35.258Z,9.69
2022-10-19T01:04:04.081Z,9.71
2022-10-19T01:06:31.701Z,9.71
2022-10-19T01:08:59.043Z,9.69
2022-10-19T01:11:32.823Z,9.81
2022-10-19T01:14:03.034Z,10.11
2022-10-19T01:16:36.117Z,10.01
2022-10-19T01:19:29.718Z,10.02
2022-10-19T01:22:26.800Z,9.99
2022-10-19T01:25:07.502Z,9.94
2022-10-19T01:27:43.910Z,9.72
2022-10-19T01:30:16.698Z,9.70
2022-10-19T01:33:12.428Z,9.84
2022-10-19T01:36:09.443Z,9.74
2022-10-19T01:38:41.450Z,9.63
2022-10-19T01:41:40.630Z,9.72
2022-10-19T01:44:25.911Z,9.74
2022-10-19T01:46:57.943Z,9.65
2022-10-19T01:49:28.169Z,9.56
2022-10-19T01:52:02.715Z,9.67
2022-10-19T01:54:36.090Z,9.59
2022-10-19T01:57:07.217Z,9.46
2022-10-19T01:59:36.729Z,9.46
2022-10-19T02:02:07.526Z,9.54
2022-10-19T02:04:37.027Z,9.47
2022-10-19T02:07:06.376Z,9.25
2022-10-19T02:09:33.944Z,9.32
2022-10-19T02:12:06.686Z,9.33
2022-10-19T02:14:40.364Z,9.25
2022-10-19T02:17:15.000Z,9.29
2022-10-19T02:19:43.029Z,9.31
2022-10-19T02:22:12.020Z,9.27
2022-10-19T02:24:39.609Z,9.17
2022-10-19T02:27:08.855Z,9.35
2022-10-19T02:29:38.389Z,9.31
2022-10-19T02:32:06.597Z,9.36
2022-10-19T02:34:34.329Z,9.37
2022-10-19T02:37:01.859Z,9.33
2022-10-19T02:39:29.790Z,9.30
2022-10-19T02:42:15.610Z,9.43
2022-10-19T02:45:03.233Z,9.45
2022-10-19T02:47:35.875Z,9.33
2022-10-19T02:50:08.290Z,9.36
2022-10-19T02:52:40.588Z,9.40
2022-10-19T02:55:09.120Z,9.36
2022-10-19T02:57:37.366Z,9.39
2022-10-19T03:00:07.585Z,9.43
2022-10-19T03:02:35.764Z,9.40
2022-10-19T03:05:03.993Z,9.39
2022-10-19T03:07:31.662Z,9.33
2022-10-19T03:09:59.159Z,9.34
2022-10-19T03:12:26.609Z,9.35
2022-10-19T03:14:54.064Z,9.36
2022-10-19T03:17:21.624Z,9.32
2022-10-19T03:19:48.975Z,9.41
2022-10-19T03:22:16.344Z,9.41
2022-10-19T03:24:43.851Z,9.42
2022-10-19T03:27:11.359Z,9.43
2022-10-19T03:29:38.870Z,9.48
2022-10-19T03:32:06.988Z,9.51
2022-10-19T03:34:34.353Z,9.59
2022-10-19T03:37:01.814Z,9.64
2022-10-19T03:39:29.315Z,9.64
2022-10-19T03:41:56.663Z,9.63
2022-10-19T03:44:24.009Z,9.68
2022-10-19T03:46:51.430Z,9.69
2022-10-19T03:49:19.115Z,9.76
2022-10-19T03:51:46.479Z,9.79
2022-10-19T03:54:16.425Z,9.86
2022-10-19T03:56:44.470Z,9.88
2022-10-19T03:59:14.988Z,9.95
2022-10-19T04:01:45.195Z,10.03
2022-10-19T04:04:16.294Z,10.07
2022-10-19T04:06:46.153Z,9.95
2022-10-19T04:09:16.935Z,10.19
2022-10-19T04:11:44.421Z,10.20
2022-10-19T04:14:26.642Z,10.38
2022-10-19T04:16:59.654Z,10.40
2022-10-19T04:19:27.073Z,10.41
2022-10-19T04:21:54.479Z,10.43
2022-10-19T04:24:22.222Z,10.47
2022-10-19T04:26:52.231Z,10.52
2022-10-19T04:29:23.737Z,10.52
2022-10-19T04:31:53.967Z,10.50
2022-10-19T04:34:21.316Z,10.48
2022-10-19T04:36:48.824Z,10.48
2022-10-19T04:39:16.367Z,10.49
2022-10-19T04:41:43.752Z,10.39
2022-10-19T04:44:11.243Z,10.46
2022-10-19T04:46:39.062Z,10.51
2022-10-19T04:49:07.094Z,10.50
2022-10-19T04:51:35.362Z,10.51
2022-10-19T04:54:04.314Z,10.50
2022-10-19T04:56:32.718Z,10.47
2022-10-19T04:59:01.158Z,10.54
2022-10-19T05:01:30.948Z,10.62
2022-10-19T05:04:01.291Z,10.71
2022-10-19T05:06:31.015Z,10.69
2022-10-19T05:08:59.128Z,10.67
2022-10-19T05:11:26.906Z,10.67
2022-10-19T05:13:54.312Z,10.70
2022-10-19T05:16:23.602Z,10.72
2022-10-19T05:18:53.631Z,10.70
2022-10-19T05:21:22.056Z,10.68
2022-10-19T05:23:52.518Z,10.82
2022-10-19T05:26:22.061Z,10.82
2022-10-19T05:28:57.016Z,10.89
2022-10-19T05:31:27.768Z,10.89
2022-10-19T05:33:58.879Z,10.88
2022-10-19T05:36:37.581Z,10.96
2022-10-19T05:39:16.870Z,10.90
2022-10-19T05:41:45.569Z,10.78
2022-10-19T05:44:16.584Z,10.86
2022-10-19T05:46:44.480Z,10.80
2022-10-19T05:49:13.390Z,10.86
2022-10-19T05:51:41.331Z,10.84
2022-10-19T05:54:08.818Z,10.86
2022-10-19T05:56:36.283Z,10.91
2022-10-19T05:59:06.622Z,10.99
2022-10-19T06:01:35.211Z,10.97
2022-10-19T06:04:04.548Z,11.04
2022-10-19T06:06:31.977Z,10.97
2022-10-19T06:09:00.241Z,11.00
2022-10-19T06:11:31.732Z,11.06
2022-10-19T06:14:01.083Z,11.04
2022-10-19T06:16:30.502Z,11.05
2022-10-19T06:18:58.925Z,11.05
2022-10-19T06:21:29.146Z,11.11
2022-10-19T06:23:59.335Z,11.14
2022-10-19T06:26:28.014Z,11.09
2022-10-19T06:28:58.166Z,11.11
2022-10-19T06:31:26.378Z,11.05
2022-10-19T06:33:54.873Z,11.05
2022-10-19T06:36:25.612Z,11.07
2022-10-19T06:38:57.013Z,11.07
2022-10-19T06:41:24.357Z,11.11
2022-10-19T06:43:52.945Z,11.14
2022-10-19T06:46:23.585Z,11.13
2022-10-19T06:48:56.467Z,11.22
2022-10-19T06:51:26.297Z,11.20
2022-10-19T06:53:56.654Z,11.24
2022-10-19T06:56:25.946Z,11.29
2022-10-19T06:58:54.555Z,11.30
2022-10-19T07:01:22.755Z,11.38
2022-10-19T07:03:54.284Z,11.45
2022-10-19T07:06:22.483Z,11.43
2022-10-19T07:08:50.144Z,11.44
2022-10-19T07:11:20.672Z,11.55
2022-10-19T07:13:48.560Z,11.54
2022-10-19T07:16:21.150Z,11.55
2022-10-19T07:18:50.966Z,11.56
2022-10-19T07:21:20.167Z,11.55
2022-10-19T07:23:48.310Z,11.55
2022-10-19T07:26:19.665Z,11.57
2022-10-19T07:28:49.268Z,11.55
2022-10-19T07:31:20.448Z,11.55
2022-10-19T07:33:51.752Z,11.51
2022-10-19T07:36:19.219Z,11.47
2022-10-19T07:38:46.654Z,11.47
2022-10-19T07:41:16.638Z,11.52
2022-10-19T07:43:45.764Z,11.53
2022-10-19T07:46:19.393Z,11.57
2022-10-19T07:48:47.058Z,11.60
2022-10-19T07:51:16.080Z,11.65
2022-10-19T07:53:43.789Z,11.58
2022-10-19T07:56:12.559Z,11.57
2022-10-19T07:58:40.764Z,11.58
2022-10-19T08:01:14.210Z,11.62
2022-10-19T08:04:42.773Z,11.65
2022-10-19T08:06:30.325Z,11.66
2022-10-19T08:08:57.768Z,11.69
2022-10-19T08:11:31.207Z,11.76
2022-10-19T08:13:59.544Z,11.67
2022-10-19T08:16:30.006Z,11.77
2022-10-19T08:19:00.930Z,11.75
2022-10-19T08:21:29.766Z,11.74
2022-10-19T08:23:57.720Z,11.75
2022-10-19T08:26:25.982Z,11.74
2022-10-19T08:28:53.410Z,11.81
2022-10-19T08:31:24.343Z,11.85
2022-10-19T08:33:52.433Z,11.65
2022-10-19T08:36:20.466Z,11.68
2022-10-19T08:38:49.112Z,11.73
2022-10-19T08:41:27.548Z,11.84
2022-10-19T08:44:19.505Z,11.70
2022-10-19T08:46:55.571Z,11.66
2022-10-19T08:49:25.994Z,11.65
2022-10-19T08:52:00.053Z,11.75
2022-10-19T08:54:43.780Z,11.87
2022-10-19T08:57:58.814Z,11.92
2022-10-19T09:00:41.165Z,11.86
2022-10-19T09:03:44.020Z,11.94
2022-10-19T09:06:23.939Z,11.82
2022-10-19T09:08:53.772Z,11.80
2022-10-19T09:11:32.667Z,11.87
2022-10-19T09:14:28.403Z,11.97
2022-10-19T09:17:00.895Z,11.86
2022-10-19T09:19:31.980Z,11.85
2022-10-19T09:22:08.082Z,11.92
2022-10-19T09:24:52.090Z,11.98
2022-10-19T09:27:26.004Z,11.81
2022-10-19T09:29:59.176Z,11.92
2022-10-19T09:32:38.841Z,12.01
2022-10-19T09:35:28.198Z,11.94
2022-10-19T09:37:56.749Z,11.97
2022-10-19T09:40:30.865Z,12.05
2022-10-19T09:42:59.692Z,11.98
2022-10-19T09:45:41.315Z,12.04
2022-10-19T09:48:29.403Z,12.11
2022-10-19T09:51:02.821Z,12.04
2022-10-19T09:53:30.793Z,12.02
2022-10-19T09:56:06.857Z,12.07
2022-10-19T09:58:35.245Z,12.00
2022-10-19T10:01:03.953Z,11.96
2022-10-19T10:03:39.561Z,12.01
2022-10-19T10:06:15.649Z,12.02
2022-10-19T10:08:58.283Z,12.01
2022-10-19T10:11:30.675Z,11.98
2022-10-19T10:14:02.272Z,11.94
2022-10-19T10:16:33.308Z,11.94
2022-10-19T10:19:06.753Z,12.00
2022-10-19T10:21:47.426Z,12.06
2022-10-19T10:24:16.623Z,11.85
2022-10-19T10:26:53.650Z,11.99
2022-10-19T10:29:23.894Z,11.86
2022-10-19T10:32:18.318Z,11.97
2022-10-19T10:35:00.749Z,11.80
2022-10-19T10:37:44.079Z,11.92
2022-10-19T10:40:28.920Z,11.90
2022-10-19T10:43:09.444Z,11.85
2022-10-19T10:45:53.258Z,11.91
2022-10-19T10:48:36.425Z,11.83
2022-10-19T10:51:08.850Z,11.81
2022-10-19T10:53:43.576Z,11.88
2022-10-19T10:56:24.916Z,11.91
2022-10-19T10:59:05.399Z,11.85
2022-10-19T11:01:41.972Z,11.82
2022-10-19T11:04:16.292Z,11.78
2022-10-19T11:06:59.879Z,11.74
2022-10-19T11:09:42.928Z,11.70
2022-10-19T11:12:16.500Z,11.70
2022-10-19T11:14:56.844Z,11.67
2022-10-19T11:17:29.957Z,11.65
2022-10-19T11:19:57.607Z,11.54
2022-10-19T11:22:44.133Z,11.60
2022-10-19T11:25:29.955Z,11.70
2022-10-19T11:28:11.288Z,11.59
2022-10-19T11:31:11.847Z,11.61
2022-10-19T11:34:00.495Z,11.62
2022-10-19T11:37:09.630Z,11.57
2022-10-19T11:40:17.723Z,11.59
2022-10-19T11:43:27.001Z,11.61
2022-10-19T11:46:14.131Z,11.55
2022-10-19T11:48:55.011Z,11.38
2022-10-19T11:51:35.897Z,11.43
2022-10-19T11:54:24.281Z,11.47
2022-10-19T11:57:05.519Z,11.38
2022-10-19T11:59:53.224Z,11.40
2022-10-19T12:02:23.606Z,11.29
2022-10-19T12:04:52.768Z,11.28
2022-10-19T12:07:51.242Z,11.36
2022-10-19T12:10:34.153Z,11.39
2022-10-19T12:13:09.852Z,11.24
2022-10-19T12:15:46.211Z,11.35
2022-10-19T12:18:19.488Z,11.20
2022-10-19T12:20:54.688Z,11.27
2022-10-19T12:23:25.479Z,11.26
2022-10-19T12:25:56.678Z,11.16
2022-10-19T12:28:30.127Z,11.20
2022-10-19T12:30:59.558Z,11.05
2022-10-19T12:33:48.321Z,11.28
2022-10-19T12:36:28.223Z,11.18
2022-10-19T12:39:26.662Z,11.21
2022-10-19T12:42:26.457Z,11.14
2022-10-19T12:45:16.152Z,11.12
2022-10-19T12:48:11.252Z,11.10
2022-10-19T12:50:51.765Z,11.07
2022-10-19T12:53:48.001Z,11.06
2022-10-19T12:56:23.203Z,10.80
2022-10-19T12:58:55.520Z,10.74
2022-10-19T13:01:44.552Z,10.90
2022-10-19T13:04:21.906Z,10.82
2022-10-19T13:07:02.875Z,10.82
2022-10-19T13:09:33.295Z,10.75
2022-10-19T13:12:17.869Z,10.80
2022-10-19T13:14:53.971Z,10.65
2022-10-19T13:17:50.875Z,10.83
2022-10-19T13:20:18.352Z,10.62
2022-10-19T13:23:05.623Z,10.69
2022-10-19T13:25:37.627Z,10.49
2022-10-19T13:28:08.112Z,10.62
2022-10-19T13:30:38.742Z,10.57
2022-10-19T13:33:33.084Z,10.65
2022-10-19T13:36:07.979Z,10.42
2022-10-19T13:38:40.165Z,10.41
2022-10-19T13:41:10.786Z,10.41
2022-10-19T13:43:44.303Z,10.43
2022-10-19T13:46:19.256Z,10.37
2022-10-19T13:49:02.496Z,10.49
2022-10-19T13:51:48.625Z,10.48
2022-10-19T13:54:34.323Z,10.45
2022-10-19T13:57:11.223Z,10.34
2022-10-19T13:59:57.079Z,10.24
2022-10-19T14:03:11.572Z,10.37
2022-10-19T14:06:09.209Z,10.36
2022-10-19T14:09:10.959Z,10.43
2022-10-19T14:11:42.107Z,10.34
2022-10-19T14:14:09.422Z,10.23
2022-10-19T14:16:55.972Z,10.25
2022-10-19T14:19:29.705Z,10.25
2022-10-19T14:22:17.311Z,10.34
2022-10-19T14:24:44.679Z,10.22
2022-10-19T14:27:19.294Z,10.29
2022-10-19T14:29:49.347Z,10.24
2022-10-19T14:32:19.479Z,10.20
2022-10-19T14:34:49.166Z,10.14
2022-10-19T14:37:21.236Z,10.12
2022-10-19T14:40:28.114Z,10.33
2022-10-19T14:42:57.766Z,10.11
2022-10-19T14:45:32.733Z,10.10
2022-10-19T14:48:03.021Z,10.16
2022-10-19T14:50:47.230Z,10.19
2022-10-19T14:53:21.953Z,10.17
2022-10-19T14:55:52.500Z,10.08
2022-10-19T14:58:22.627Z,10.08
2022-10-19T15:00:52.357Z,10.06
2022-10-19T15:03:28.866Z,10.07
2022-10-19T15:06:02.833Z,9.83
2022-10-19T15:08:48.828Z,10.05
2022-10-19T15:11:30.079Z,10.02
2022-10-19T15:14:06.525Z,9.93
2022-10-19T15:16:40.043Z,9.83
2022-10-19T15:19:28.025Z,9.97
2022-10-19T15:22:20.321Z,10.01
2022-10-19T15:25:09.126Z,10.03
2022-10-19T15:27:39.205Z,9.84
2022-10-19T15:30:31.732Z,9.97
2022-10-19T15:33:02.032Z,9.85
2022-10-19T15:35:36.626Z,9.82
2022-10-19T15:38:27.347Z,9.89
2022-10-19T15:41:00.281Z,9.78
2022-10-19T15:43:30.621Z,9.75
2022-10-19T15:46:20.404Z,9.78
2022-10-19T15:48:52.347Z,9.67
2022-10-19T15:51:25.682Z,9.69
2022-10-19T15:53:55.524Z,9.60
2022-10-19T15:56:25.181Z,9.58
2022-10-19T15:58:57.039Z,9.58
2022-10-19T16:01:26.954Z,9.51
2022-10-19T16:03:55.027Z,9.43
2022-10-19T16:06:26.156Z,9.48
2022-10-19T16:08:54.421Z,9.39
2022-10-19T16:11:23.453Z,9.44
2022-10-19T16:13:51.439Z,9.34
2022-10-19T16:16:31.211Z,9.47
2022-10-19T16:18:59.549Z,9.33
2022-10-19T16:21:33.522Z,9.32
2022-10-19T16:24:01.189Z,9.27
2022-10-19T16:26:29.546Z,9.25
2022-10-19T16:28:57.455Z,9.20
2022-10-19T16:31:25.207Z,9.28
2022-10-19T16:33:52.656Z,9.21
2022-10-19T16:36:20.677Z,9.26
2022-10-19T16:38:49.357Z,9.28
2022-10-19T16:41:17.205Z,9.21
2022-10-19T16:43:44.724Z,9.19
2022-10-19T16:46:12.155Z,9.19
2022-10-19T16:48:39.598Z,9.19
2022-10-19T16:51:07.126Z,9.20
2022-10-19T16:53:35.602Z,9.19
2022-10-19T16:56:09.198Z,9.21
2022-10-19T16:58:37.502Z,9.09
2022-10-19T17:01:09.651Z,9.16
2022-10-19T17:03:37.660Z,8.98
2022-10-19T17:06:06.763Z,8.98
2022-10-19T17:09:02.725Z,8.98
2022-10-19T17:11:25.626Z,9.01
2022-10-19T17:13:55.913Z,9.03
2022-10-19T17:16:24.855Z,9.01
2022-10-19T17:18:55.560Z,9.04
2022-10-19T17:21:25.559Z,9.07
2022-10-19T17:24:00.047Z,9.13
2022-10-19T17:26:38.398Z,9.18
2022-10-19T17:29:08.861Z,9.15
2022-10-19T17:31:37.680Z,9.14
2022-10-19T17:34:05.927Z,9.18
2022-10-19T17:36:38.459Z,9.24
2022-10-19T17:39:09.816Z,9.20
2022-10-19T17:41:37.850Z,9.14
2022-10-19T17:44:05.775Z,9.14
2022-10-19T17:46:35.587Z,9.19
2022-10-19T17:49:04.081Z,9.14
2022-10-19T17:51:34.752Z,9.16
2022-10-19T17:54:05.639Z,9.18
2022-10-19T17:56:33.698Z,9.08
2022-10-19T17:59:03.283Z,9.03
2022-10-19T18:01:31.793Z,9.08
2022-10-19T18:03:59.543Z,9.06
2022-10-19T18:06:33.534Z,9.16
2022-10-19T18:09:02.414Z,9.03
2022-10-19T18:11:32.522Z,9.14
2022-10-19T18:14:01.406Z,9.14
2022-10-19T18:16:34.698Z,9.22
2022-10-19T18:19:04.174Z,9.15
2022-10-19T18:21:35.462Z,9.22
2022-10-19T18:24:03.747Z,9.22
2022-10-19T18:26:33.993Z,9.26
2022-10-19T18:29:11.205Z,9.35
2022-10-19T18:31:40.254Z,9.25
2022-10-19T18:34:09.237Z,9.28
2022-10-19T18:36:36.607Z,9.25
2022-10-19T18:39:06.072Z,9.28
2022-10-19T18:41:34.204Z,9.29
2022-10-19T18:44:05.783Z,9.33
2022-10-19T18:46:37.577Z,9.38
2022-10-19T18:49:08.456Z,9.35
2022-10-19T18:51:36.407Z,9.31
2022-10-19T18:54:04.432Z,9.35
2022-10-19T18:56:33.644Z,9.39
2022-10-19T18:59:00.959Z,9.42
2022-10-19T19:01:29.410Z,9.33
2022-10-19T19:04:07.230Z,9.37
2022-10-19T19:06:36.452Z,9.26
2022-10-19T19:09:07.721Z,9.29
2022-10-19T19:11:37.657Z,9.30
2022-10-19T19:14:10.816Z,9.34
2022-10-19T19:16:39.674Z,9.34
2022-10-19T19:19:07.919Z,9.33
2022-10-19T19:21:36.806Z,9.36
2022-10-19T19:24:07.048Z,9.38
2022-10-19T19:26:38.905Z,9.43
2022-10-19T19:29:06.290Z,9.38
2022-10-19T19:31:34.072Z,9.39
2022-10-19T19:34:02.497Z,9.38
2022-10-19T19:36:30.068Z,9.39
2022-10-19T19:38:57.803Z,9.42
2022-10-19T19:41:25.712Z,9.45
2022-10-19T19:43:53.105Z,9.43
2022-10-19T19:46:20.703Z,9.45
2022-10-19T19:48:49.046Z,9.46
2022-10-19T19:51:19.271Z,9.50
2022-10-19T19:53:48.055Z,9.45
2022-10-19T19:56:17.277Z,9.50
2022-10-19T19:58:45.638Z,9.45
2022-10-19T20:01:19.116Z,9.54
2022-10-19T20:03:47.838Z,9.47
2022-10-19T20:06:19.659Z,9.52
2022-10-19T20:08:49.566Z,9.50
2022-10-19T20:11:17.907Z,9.45
2022-10-19T20:13:46.010Z,9.46
2022-10-19T20:16:19.071Z,9.54
2022-10-19T20:18:49.225Z,9.54
2022-10-19T20:21:19.001Z,9.55
2022-10-19T20:23:47.710Z,9.52
2022-10-19T20:26:26.046Z,9.64
2022-10-19T20:28:53.894Z,9.52
2022-10-19T20:31:21.829Z,9.52
2022-10-19T20:33:49.939Z,9.53
2022-10-19T20:36:18.975Z,9.50
2022-10-19T20:38:51.867Z,9.51
2022-10-19T20:41:25.336Z,9.53
2022-10-19T20:43:54.054Z,9.42
2022-10-19T20:46:24.066Z,9.48
2022-10-19T20:48:52.523Z,9.37
2022-10-19T20:51:20.851Z,9.38
2022-10-19T20:53:50.714Z,9.43
2022-10-19T20:56:23.257Z,9.41
2022-10-19T20:58:56.784Z,9.49
2022-10-19T21:01:25.009Z,9.43
2022-10-19T21:03:55.129Z,9.45
2022-10-19T21:06:25.364Z,9.47
2022-10-19T21:08:53.419Z,9.45
2022-10-19T21:11:23.903Z,9.46
2022-10-19T21:14:15.640Z,9.64
2022-10-19T21:16:43.666Z,9.42
2022-10-19T21:19:17.572Z,9.47
2022-10-19T21:21:50.382Z,9.42
2022-10-19T21:24:20.961Z,9.43
2022-10-19T21:26:48.846Z,9.36
2022-10-19T21:29:17.319Z,9.37
2022-10-19T21:31:48.932Z,9.37
2022-10-19T21:34:19.663Z,9.37
2022-10-19T21:36:47.128Z,9.30
2022-10-19T21:39:17.466Z,9.30
2022-10-19T21:41:45.195Z,9.30
2022-10-19T21:44:13.574Z,9.30
2022-10-19T21:46:43.231Z,9.28
2022-10-19T21:49:12.400Z,9.31
2022-10-19T21:51:45.693Z,9.34
2022-10-19T21:54:16.124Z,9.31
2022-10-19T21:56:44.948Z,9.21
2022-10-19T21:59:12.918Z,9.11
2022-10-19T22:01:41.868Z,9.03
2022-10-19T22:04:16.246Z,9.02
2022-10-19T22:06:44.281Z,8.95
2022-10-19T22:09:15.463Z,8.91
2022-10-19T22:11:43.395Z,8.84
2022-10-19T22:14:12.993Z,8.84
2022-10-19T22:16:41.605Z,8.78
2022-10-19T22:19:10.283Z,8.67
2022-10-19T22:24:08.482Z,8.71
2022-10-19T22:26:39.774Z,8.67
2022-10-19T22:29:08.054Z,8.56
2022-10-19T22:31:37.197Z,8.54
2022-10-19T22:34:07.646Z,8.48
2022-10-19T22:36:35.712Z,8.46
2022-10-19T22:39:04.020Z,8.38
2022-10-19T22:41:31.424Z,8.29
2022-10-19T22:43:58.940Z,8.17
2022-10-19T22:46:26.395Z,8.16
2022-10-19T22:48:53.687Z,8.07
2022-10-19T22:51:51.626Z,8.05
2022-10-19T22:54:22.248Z,8.02
2022-10-19T22:56:49.790Z,7.94
2022-10-19T22:59:17.098Z,7.91
2022-10-19T23:01:44.474Z,7.84
2022-10-19T23:04:11.979Z,7.80
2022-10-19T23:06:39.390Z,7.76
2022-10-19T23:09:07.113Z,7.71
2022-10-19T23:11:34.443Z,7.66
2022-10-19T23:14:01.843Z,7.63
2022-10-19T23:16:29.427Z,7.59
2022-10-19T23:18:56.922Z,7.60
2022-10-19T23:21:40.601Z,7.52
2022-10-19T23:24:09.202Z,7.49
2022-10-19T23:26:37.023Z,7.44
2022-10-19T23:29:04.350Z,7.38
2022-10-19T23:31:33.115Z,7.34
2022-10-19T23:34:00.538Z,7.32
2022-10-19T23:36:29.251Z,7.33
2022-10-19T23:38:58.218Z,7.30
2022-10-19T23:41:25.870Z,7.22
2022-10-19T23:43:53.362Z,7.13
2022-10-19T23:46:21.008Z,7.13
2022-10-19T23:48:48.506Z,7.04
2022-10-19T23:51:18.970Z,7.07
2022-10-19T23:53:48.355Z,7.03
2022-10-19T23:56:27.998Z,7.04
2022-10-19T23:58:56.637Z,6.94
